createdAt,value
2023-03-13T01:15:50.412Z,9.50
2023-03-13T01:18:22.181Z,9.50
2023-03-13T01:20:50.749Z,9.50
2023-03-13T01:23:21.424Z,9.40
2023-03-13T01:25:49.735Z,9.50
2023-03-13T01:28:25.875Z,9.40
2023-03-13T01:30:55.731Z,9.40
2023-03-13T01:33:24.128Z,9.40
2023-03-13T01:35:55.912Z,9.40
2023-03-13T01:38:24.245Z,9.40
2023-03-13T01:40:57.850Z,9.50
2023-03-13T01:43:40.744Z,9.40
2023-03-13T01:46:28.071Z,9.50
2023-03-13T01:49:00.129Z,9.40
2023-03-13T01:51:31.572Z,9.40
2023-03-13T01:54:05.493Z,9.30
2023-03-13T01:56:47.861Z,9.30
2023-03-13T01:59:23.905Z,9.30
2023-03-13T02:02:00.774Z,9.30
2023-03-13T02:04:36.585Z,9.30
2023-03-13T02:07:11.082Z,9.30
2023-03-13T02:09:52.175Z,9.20
2023-03-13T02:12:24.595Z,9.20
2023-03-13T02:14:54.799Z,9.20
2023-03-13T02:17:28.189Z,9.20
2023-03-13T02:20:04.012Z,9.20
2023-03-13T02:22:35.827Z,9.20
2023-03-13T02:25:12.602Z,9.20
2023-03-13T02:27:42.982Z,9.20
2023-03-13T02:30:14.542Z,9.20
2023-03-13T02:32:44.947Z,9.20
2023-03-13T02:35:16.176Z,9.20
2023-03-13T02:37:49.673Z,9.20
2023-03-13T02:40:22.231Z,9.20
2023-03-13T02:42:55.379Z,9.20
2023-03-13T02:45:28.796Z,9.20
2023-03-13T02:48:02.306Z,9.20
2023-03-13T02:50:30.925Z,9.20
2023-03-13T02:53:05.175Z,9.20
2023-03-13T02:55:39.215Z,9.20
2023-03-13T02:58:10.501Z,9.20
2023-03-13T03:00:39.094Z,9.30
2023-03-13T03:03:07.425Z,9.30
2023-03-13T03:08:18.004Z,9.30
2023-03-13T03:10:46.399Z,9.30
2023-03-13T03:13:29.592Z,9.30
2023-03-13T03:16:05.009Z,9.30
2023-03-13T03:18:36.204Z,9.30
2023-03-13T03:21:06.581Z,9.30
2023-03-13T03:23:40.133Z,9.40
2023-03-13T03:26:08.821Z,9.40
2023-03-13T03:28:40.342Z,9.40
2023-03-13T03:31:13.512Z,9.40
2023-03-13T03:33:47.552Z,9.40
2023-03-13T03:36:23.835Z,9.40
2023-03-13T03:38:54.776Z,9.50
2023-03-13T03:41:35.932Z,9.50
2023-03-13T03:44:10.727Z,9.50
2023-03-13T03:46:42.301Z,9.50
2023-03-13T03:49:12.499Z,9.50
2023-03-13T03:51:40.770Z,9.50
2023-03-13T03:54:13.866Z,9.50
2023-03-13T03:56:42.314Z,9.60
2023-03-13T03:59:12.052Z,9.60
2023-03-13T04:01:46.979Z,9.60
2023-03-13T04:04:18.461Z,9.70
2023-03-13T04:06:47.792Z,9.70
2023-03-13T04:09:37.187Z,9.70
2023-03-13T04:12:07.899Z,9.70
2023-03-13T04:14:40.876Z,9.70
2023-03-13T04:17:25.877Z,9.80
2023-03-13T04:19:57.778Z,9.80
2023-03-13T04:22:33.730Z,9.80
2023-03-13T04:25:08.286Z,9.80
2023-03-13T04:27:37.190Z,9.80
2023-03-13T04:30:11.408Z,9.80
2023-03-13T04:32:43.191Z,9.80
2023-03-13T04:35:13.346Z,9.90
2023-03-13T04:37:44.466Z,9.80
2023-03-13T04:40:15.728Z,9.80
2023-03-13T04:42:59.226Z,9.90
2023-03-13T04:45:29.238Z,9.90
2023-03-13T04:47:59.374Z,9.80
2023-03-13T04:50:31.495Z,9.90
2023-03-13T04:53:02.494Z,9.90
2023-03-13T04:55:36.306Z,9.90
2023-03-13T04:58:09.091Z,10.00
2023-03-13T05:00:53.748Z,10.00
2023-03-13T05:03:31.090Z,10.00
2023-03-13T05:06:00.473Z,10.10
2023-03-13T05:08:29.028Z,10.10
2023-03-13T05:10:57.840Z,10.10
2023-03-13T05:13:25.988Z,10.10
2023-03-13T05:15:55.695Z,10.10
2023-03-13T05:18:24.139Z,10.10
2023-03-13T05:20:52.953Z,10.10
2023-03-13T05:23:21.307Z,10.20
2023-03-13T05:25:49.690Z,10.10
2023-03-13T05:28:18.168Z,10.20
2023-03-13T05:30:46.920Z,10.30
2023-03-13T05:33:17.064Z,10.20
2023-03-13T05:35:45.447Z,10.30
2023-03-13T05:38:14.926Z,10.30
2023-03-13T05:40:43.820Z,10.40
2023-03-13T05:43:12.329Z,10.40
2023-03-13T05:45:40.694Z,10.40
2023-03-13T05:48:08.953Z,10.40
2023-03-13T05:50:39.049Z,10.50
2023-03-13T05:53:07.434Z,10.50
2023-03-13T05:55:35.791Z,10.60
2023-03-13T05:58:04.365Z,10.50
2023-03-13T06:00:32.781Z,10.50
2023-03-13T06:03:01.298Z,10.60
2023-03-13T06:05:29.596Z,10.50
2023-03-13T06:07:59.630Z,10.50
2023-03-13T06:10:28.314Z,10.60
2023-03-13T06:12:56.805Z,10.70
2023-03-13T06:15:25.439Z,10.60
2023-03-13T06:17:53.754Z,10.60
2023-03-13T06:20:22.619Z,10.60
2023-03-13T06:22:51.123Z,10.70
2023-03-13T06:25:23.260Z,10.70
2023-03-13T06:27:51.985Z,10.70
2023-03-13T06:30:20.493Z,10.90
2023-03-13T06:32:50.558Z,10.80
2023-03-13T06:35:19.537Z,10.80
2023-03-13T06:37:50.762Z,10.90
2023-03-13T06:40:23.963Z,11.00
2023-03-13T06:42:52.338Z,10.90
2023-03-13T06:45:21.951Z,11.00
2023-03-13T06:47:51.701Z,11.00
2023-03-13T06:50:20.482Z,11.00
2023-03-13T06:52:49.141Z,11.10
2023-03-13T06:55:17.601Z,11.10
2023-03-13T06:57:51.605Z,11.20
2023-03-13T07:00:21.927Z,11.10
2023-03-13T07:02:50.382Z,11.20
2023-03-13T07:05:18.629Z,11.30
2023-03-13T07:07:46.948Z,11.40
2023-03-13T07:10:15.359Z,11.40
2023-03-13T07:12:44.893Z,11.40
2023-03-13T07:15:15.086Z,11.60
2023-03-13T07:17:43.769Z,11.50
2023-03-13T07:20:16.501Z,11.50
2023-03-13T07:22:46.049Z,11.40
2023-03-13T07:25:15.546Z,11.40
2023-03-13T07:27:43.950Z,11.60
2023-03-13T07:30:15.107Z,11.70
2023-03-13T07:32:43.475Z,11.60
2023-03-13T07:35:12.014Z,11.70
2023-03-13T07:37:40.322Z,11.80
2023-03-13T07:40:10.557Z,11.70
2023-03-13T07:42:41.880Z,11.60
2023-03-13T07:45:12.118Z,11.70
2023-03-13T07:47:42.720Z,11.70
2023-03-13T07:50:12.753Z,11.70
2023-03-13T07:52:41.266Z,11.80
2023-03-13T07:55:10.728Z,11.80
2023-03-13T07:57:39.288Z,11.80
2023-03-13T08:00:15.075Z,11.80
2023-03-13T08:02:46.148Z,11.80
2023-03-13T08:05:14.917Z,11.90
2023-03-13T08:07:43.385Z,12.10
2023-03-13T08:10:13.444Z,12.00
2023-03-13T08:12:42.037Z,11.90
2023-03-13T08:15:13.780Z,12.00
2023-03-13T08:17:42.181Z,11.90
2023-03-13T08:20:13.590Z,12.00
2023-03-13T08:22:41.906Z,12.10
2023-03-13T08:25:10.887Z,12.10
2023-03-13T08:27:39.538Z,12.10
2023-03-13T08:30:09.874Z,12.10
2023-03-13T08:32:38.727Z,12.10
2023-03-13T08:35:07.749Z,12.10
2023-03-13T08:37:37.552Z,12.10
2023-03-13T08:40:10.421Z,12.10
2023-03-13T08:42:40.987Z,12.20
2023-03-13T08:45:10.584Z,12.10
2023-03-13T08:47:39.208Z,12.30
2023-03-13T08:50:08.908Z,12.20
2023-03-13T08:52:38.648Z,12.30
2023-03-13T08:55:08.042Z,12.20
2023-03-13T08:57:36.308Z,12.30
2023-03-13T09:00:06.689Z,12.20
2023-03-13T09:02:35.527Z,12.30
2023-03-13T09:05:03.837Z,12.30
2023-03-13T09:07:32.316Z,12.20
2023-03-13T09:10:02.153Z,12.30
2023-03-13T09:12:31.901Z,12.20
2023-03-13T09:15:00.366Z,12.20
2023-03-13T09:17:29.037Z,12.40
2023-03-13T09:20:00.697Z,12.40
2023-03-13T09:22:29.736Z,12.40
2023-03-13T09:24:58.182Z,12.30
2023-03-13T09:27:28.349Z,12.40
2023-03-13T09:29:56.753Z,12.50
2023-03-13T09:32:25.167Z,12.60
2023-03-13T09:34:53.466Z,12.60
2023-03-13T09:37:21.831Z,12.80
2023-03-13T09:39:50.253Z,12.80
2023-03-13T09:42:19.914Z,12.90
2023-03-13T09:44:54.063Z,12.90
2023-03-13T09:47:25.925Z,12.80
2023-03-13T09:49:56.026Z,12.90
2023-03-13T09:52:26.329Z,12.90
2023-03-13T09:54:58.859Z,12.80
2023-03-13T09:57:33.487Z,12.80
2023-03-13T10:00:11.618Z,12.80
2023-03-13T10:02:40.921Z,12.90
2023-03-13T10:05:17.857Z,12.80
2023-03-13T10:07:46.544Z,13.00
2023-03-13T10:10:18.278Z,13.00
2023-03-13T10:12:48.034Z,13.20
2023-03-13T10:15:33.817Z,13.20
2023-03-13T10:18:13.152Z,13.10
2023-03-13T10:20:42.509Z,13.10
2023-03-13T10:23:17.343Z,13.20
2023-03-13T10:25:45.808Z,13.20
2023-03-13T10:28:20.238Z,13.60
2023-03-13T10:30:52.545Z,13.60
2023-03-13T10:33:26.975Z,13.80
2023-03-13T10:36:04.443Z,13.90
2023-03-13T10:38:46.839Z,13.80
2023-03-13T10:41:30.546Z,14.00
2023-03-13T10:44:02.502Z,14.00
2023-03-13T10:46:33.579Z,14.10
2023-03-13T10:49:04.255Z,14.10
2023-03-13T10:51:37.877Z,14.00
2023-03-13T10:54:18.385Z,14.10
2023-03-13T10:56:47.062Z,14.10
2023-03-13T10:59:23.568Z,14.20
2023-03-13T11:01:55.144Z,14.40
2023-03-13T11:04:32.930Z,14.40
2023-03-13T11:07:04.834Z,14.40
2023-03-13T11:09:33.735Z,14.60
2023-03-13T11:12:05.321Z,14.50
2023-03-13T11:14:33.970Z,14.40
2023-03-13T11:17:06.877Z,14.60
2023-03-13T11:19:54.102Z,14.70
2023-03-13T11:22:32.079Z,14.70
2023-03-13T11:25:17.910Z,14.60
2023-03-13T11:27:57.967Z,14.80
2023-03-13T11:30:47.301Z,14.80
2023-03-13T11:33:25.872Z,15.00
2023-03-13T11:36:01.935Z,15.00
2023-03-13T11:38:34.214Z,14.90
2023-03-13T11:41:10.593Z,15.00
2023-03-13T11:43:52.972Z,15.20
2023-03-13T11:46:31.609Z,15.30
2023-03-13T11:49:15.304Z,15.20
2023-03-13T11:51:54.208Z,15.20
2023-03-13T11:54:49.459Z,15.20
2023-03-13T11:57:26.438Z,15.20
2023-03-13T12:00:25.951Z,15.30
2023-03-13T12:02:58.921Z,15.40
2023-03-13T12:05:30.465Z,15.50
2023-03-13T12:08:03.793Z,15.30
2023-03-13T12:10:36.553Z,15.50
2023-03-13T12:13:09.403Z,15.40
2023-03-13T12:15:41.563Z,15.50
2023-03-13T12:18:16.877Z,15.70
2023-03-13T12:20:53.857Z,15.80
2023-03-13T12:23:24.837Z,15.80
2023-03-13T12:25:56.044Z,15.90
2023-03-13T12:28:34.080Z,15.70
2023-03-13T12:31:09.638Z,15.60
2023-03-13T12:33:42.963Z,15.50
2023-03-13T12:36:15.845Z,15.70
2023-03-13T12:38:50.179Z,15.90
2023-03-13T12:41:25.995Z,15.80
2023-03-13T12:44:11.511Z,16.10
2023-03-13T12:46:44.589Z,16.10
2023-03-13T12:49:39.123Z,15.90
2023-03-13T12:52:39.256Z,15.90
2023-03-13T12:55:25.481Z,15.80
2023-03-13T12:58:11.424Z,15.80
2023-03-13T13:00:42.214Z,15.90
2023-03-13T13:03:23.340Z,15.70
2023-03-13T13:06:08.040Z,15.80
2023-03-13T13:08:41.145Z,15.90
2023-03-13T13:11:48.481Z,15.70
2023-03-13T13:14:59.354Z,15.70
2023-03-13T13:17:51.971Z,15.80
2023-03-13T13:20:39.564Z,15.80
2023-03-13T13:23:47.468Z,15.60
2023-03-13T13:26:50.199Z,15.80
2023-03-13T13:30:08.372Z,15.60
2023-03-13T13:32:45.303Z,15.50
2023-03-13T13:35:28.229Z,15.80
2023-03-13T13:38:38.840Z,15.90
2023-03-13T13:41:28.832Z,16.10
2023-03-13T13:44:29.348Z,16.00
2023-03-13T13:47:00.219Z,15.80
2023-03-13T13:49:39.888Z,15.90
2023-03-13T13:52:36.907Z,15.80
2023-03-13T13:55:17.875Z,15.80
2023-03-13T13:57:49.698Z,15.80
2023-03-13T14:00:21.252Z,15.90
2023-03-13T14:02:52.133Z,15.80
2023-03-13T14:05:23.218Z,16.00
2023-03-13T14:08:01.826Z,15.90
2023-03-13T14:10:34.597Z,15.90
2023-03-13T14:13:11.129Z,16.00
2023-03-13T14:15:43.992Z,15.90
2023-03-13T14:18:19.674Z,15.80
2023-03-13T14:20:59.517Z,15.70
2023-03-13T14:23:43.574Z,15.70
2023-03-13T14:26:14.800Z,15.60
2023-03-13T14:28:47.385Z,15.80
2023-03-13T14:31:27.626Z,15.70
2023-03-13T14:33:57.328Z,15.70
2023-03-13T14:36:26.059Z,15.70
2023-03-13T14:38:56.251Z,15.70
2023-03-13T14:41:30.187Z,15.50
2023-03-13T14:44:06.766Z,15.50
2023-03-13T14:46:37.106Z,15.60
2023-03-13T14:49:17.968Z,15.60
2023-03-13T14:51:46.637Z,15.70
2023-03-13T14:54:27.396Z,15.60
2023-03-13T14:57:25.431Z,15.60
2023-03-13T14:59:57.376Z,15.70
2023-03-13T15:02:28.059Z,15.70
2023-03-13T15:04:59.716Z,15.60
2023-03-13T15:07:37.068Z,15.70
2023-03-13T15:10:20.496Z,15.90
2023-03-13T15:12:49.015Z,16.00
2023-03-13T15:15:19.694Z,16.10
2023-03-13T15:17:48.111Z,16.00
2023-03-13T15:20:17.334Z,16.00
2023-03-13T15:22:47.839Z,16.10
2023-03-13T15:25:18.478Z,16.10
2023-03-13T15:27:46.894Z,16.10
2023-03-13T15:30:19.435Z,16.10
2023-03-13T15:32:48.869Z,16.10
2023-03-13T15:35:29.325Z,16.00
2023-03-13T15:37:58.155Z,16.00
2023-03-13T15:40:27.495Z,16.00
2023-03-13T15:42:56.709Z,15.90
2023-03-13T15:45:26.705Z,16.00
2023-03-13T15:47:55.297Z,16.00
2023-03-13T15:50:29.965Z,16.20
2023-03-13T15:52:59.030Z,16.20
2023-03-13T15:55:28.405Z,16.10
2023-03-13T15:57:56.902Z,16.10
2023-03-13T16:00:28.892Z,16.10
2023-03-13T16:02:57.803Z,16.20
2023-03-13T16:05:26.378Z,16.30
2023-03-13T16:07:55.214Z,16.30
2023-03-13T16:10:25.882Z,16.40
2023-03-13T16:12:54.288Z,16.40
2023-03-13T16:15:23.023Z,16.40
2023-03-13T16:17:53.081Z,16.40
2023-03-13T16:20:23.674Z,16.40
2023-03-13T16:22:53.642Z,16.30
2023-03-13T16:25:23.041Z,16.30
2023-03-13T16:27:53.635Z,16.20
2023-03-13T16:30:25.141Z,16.20
2023-03-13T16:32:54.949Z,16.20
2023-03-13T16:35:23.666Z,16.10
2023-03-13T16:37:52.260Z,16.00
2023-03-13T16:40:22.470Z,16.00
2023-03-13T16:42:51.023Z,15.90
2023-03-13T16:45:20.202Z,15.90
2023-03-13T16:47:48.978Z,15.80
2023-03-13T16:50:24.909Z,15.70
2023-03-13T16:52:53.897Z,15.70
2023-03-13T16:55:24.956Z,15.60
2023-03-13T16:57:57.217Z,15.50
2023-03-13T17:00:27.930Z,15.50
2023-03-13T17:02:57.553Z,15.40
2023-03-13T17:05:28.355Z,15.40
2023-03-13T17:07:57.155Z,15.40
2023-03-13T17:10:27.060Z,15.30
2023-03-13T17:12:55.506Z,15.30
2023-03-13T17:15:25.149Z,15.20
2023-03-13T17:17:54.330Z,15.00
2023-03-13T17:20:24.710Z,14.90
2023-03-13T17:22:56.355Z,14.80
2023-03-13T17:25:24.989Z,14.80
2023-03-13T17:27:53.681Z,14.90
2023-03-13T17:30:24.979Z,14.90
2023-03-13T17:32:53.790Z,14.90
2023-03-13T17:35:22.925Z,14.90
2023-03-13T17:37:51.582Z,14.80
2023-03-13T17:40:22.894Z,14.80
2023-03-13T17:42:51.749Z,14.80
2023-03-13T17:45:20.902Z,14.70
2023-03-13T17:47:50.505Z,14.60
2023-03-13T17:50:21.570Z,14.60
2023-03-13T17:52:49.963Z,14.60
2023-03-13T17:55:18.620Z,14.60
2023-03-13T17:57:49.080Z,14.60
2023-03-13T18:00:22.429Z,14.50
2023-03-13T18:02:51.262Z,14.50
2023-03-13T18:05:20.127Z,14.40
2023-03-13T18:07:50.872Z,14.40
2023-03-13T18:10:23.640Z,14.40
2023-03-13T18:12:54.032Z,14.40
2023-03-13T18:15:28.054Z,14.40
2023-03-13T18:17:56.508Z,14.40
2023-03-13T18:20:27.100Z,14.30
2023-03-13T18:22:59.585Z,14.30
2023-03-13T18:25:28.372Z,14.20
2023-03-13T18:27:58.479Z,14.20
2023-03-13T18:30:27.628Z,14.20
2023-03-13T18:32:56.209Z,14.10
2023-03-13T18:35:25.225Z,14.10
2023-03-13T18:37:54.150Z,14.00
2023-03-13T18:40:25.100Z,14.00
2023-03-13T18:42:54.221Z,14.00
2023-03-13T18:45:25.748Z,13.90
2023-03-13T18:47:54.403Z,13.90
2023-03-13T18:50:26.607Z,13.90
2023-03-13T18:52:55.702Z,13.90
2023-03-13T18:55:24.261Z,13.90
2023-03-13T18:57:52.868Z,13.80
2023-03-13T19:00:25.760Z,13.80
2023-03-13T19:02:54.349Z,13.80
2023-03-13T19:05:23.775Z,13.80
2023-03-13T19:07:52.339Z,13.80
2023-03-13T19:10:24.335Z,13.80
2023-03-13T19:12:53.618Z,13.80
2023-03-13T19:15:25.843Z,13.80
2023-03-13T19:17:55.220Z,13.80
2023-03-13T19:20:25.077Z,13.70
2023-03-13T19:22:55.953Z,13.70
2023-03-13T19:25:24.421Z,13.70
2023-03-13T19:27:52.998Z,13.70
2023-03-13T19:30:24.721Z,13.70
2023-03-13T19:32:53.762Z,13.70
2023-03-13T19:35:22.614Z,13.70
2023-03-13T19:37:51.408Z,13.70
2023-03-13T19:40:21.752Z,13.60
2023-03-13T19:42:50.362Z,13.60
2023-03-13T19:45:20.611Z,13.60
2023-03-13T19:47:50.822Z,13.60
2023-03-13T19:50:21.140Z,13.50
2023-03-13T19:52:49.392Z,13.50
2023-03-13T19:55:18.431Z,13.50
2023-03-13T19:57:47.270Z,13.50
2023-03-13T20:00:21.109Z,13.50
2023-03-13T20:02:54.937Z,13.40
2023-03-13T20:05:23.599Z,13.40
2023-03-13T20:07:54.018Z,13.30
2023-03-13T20:10:23.180Z,13.30
2023-03-13T20:12:53.718Z,13.30
2023-03-13T20:15:22.164Z,13.30
2023-03-13T20:17:52.881Z,13.20
2023-03-13T20:20:21.564Z,13.20
2023-03-13T20:22:50.208Z,13.20
2023-03-13T20:25:18.771Z,13.20
2023-03-13T20:27:47.445Z,13.10
2023-03-13T20:30:16.039Z,13.10
2023-03-13T20:32:58.573Z,13.10
2023-03-13T20:35:29.817Z,13.10
2023-03-13T20:38:01.151Z,13.00
2023-03-13T20:40:30.063Z,12.90
2023-03-13T20:42:59.524Z,12.90
2023-03-13T20:45:28.910Z,12.90
2023-03-13T20:47:57.365Z,13.00
2023-03-13T20:50:26.169Z,12.90
2023-03-13T20:52:56.918Z,12.90
2023-03-13T20:55:25.134Z,12.80
2023-03-13T20:57:53.476Z,12.80
2023-03-13T21:00:23.470Z,12.70
2023-03-13T21:02:53.823Z,12.70
2023-03-13T21:05:23.038Z,12.70
2023-03-13T21:07:51.387Z,12.70
2023-03-13T21:10:21.763Z,12.60
2023-03-13T21:12:50.299Z,12.60
2023-03-13T21:15:18.872Z,12.60
2023-03-13T21:17:47.494Z,12.60
2023-03-13T21:20:15.892Z,12.50
2023-03-13T21:22:45.181Z,12.50
2023-03-13T21:25:14.038Z,12.50
2023-03-13T21:27:45.199Z,12.40
2023-03-13T21:30:15.429Z,12.50
2023-03-13T21:32:44.121Z,12.40
2023-03-13T21:35:13.142Z,12.40
2023-03-13T21:37:42.285Z,12.30
2023-03-13T21:40:12.801Z,12.30
2023-03-13T21:42:41.147Z,12.20
2023-03-13T21:45:14.282Z,12.30
2023-03-13T21:47:42.789Z,12.30
2023-03-13T21:50:12.428Z,12.30
2023-03-13T21:52:42.411Z,12.30
2023-03-13T21:55:13.893Z,12.20
2023-03-13T21:57:43.683Z,12.30
2023-03-13T22:00:15.871Z,12.20
2023-03-13T22:02:44.510Z,12.20
2023-03-13T22:05:13.933Z,12.10
2023-03-13T22:07:42.227Z,12.00
2023-03-13T22:10:11.873Z,12.10
2023-03-13T22:12:40.283Z,12.10
2023-03-13T22:15:10.612Z,12.00
2023-03-13T22:17:40.706Z,12.00
2023-03-13T22:20:11.459Z,12.10
2023-03-13T22:22:39.666Z,12.10
2023-03-13T22:25:09.095Z,12.00
2023-03-13T22:27:37.867Z,12.00
2023-03-13T22:30:07.919Z,12.00
2023-03-13T22:32:36.283Z,12.00
2023-03-13T22:35:07.013Z,12.00
2023-03-13T22:37:35.479Z,12.10
2023-03-13T22:40:04.032Z,12.00
2023-03-13T22:42:32.513Z,12.00
2023-03-13T22:45:02.284Z,12.00
2023-03-13T22:47:30.656Z,12.00
2023-03-13T23:08:48.138Z,12.00
2023-03-13T23:11:16.397Z,12.00
2023-03-13T23:13:44.488Z,12.00
2023-03-13T23:16:14.769Z,11.90
2023-03-13T23:18:43.175Z,11.90
2023-03-13T23:21:13.013Z,11.80
2023-03-13T23:23:52.637Z,11.80
2023-03-13T23:26:21.114Z,11.80
2023-03-13T23:28:49.389Z,11.80
2023-03-13T23:31:19.563Z,11.80
2023-03-13T23:33:48.806Z,11.80
2023-03-13T23:36:18.192Z,11.80
2023-03-13T23:38:51.974Z,11.80
2023-03-13T23:41:21.911Z,11.80
2023-03-13T23:43:55.581Z,11.80
2023-03-13T23:46:26.039Z,11.80
2023-03-13T23:48:54.453Z,11.80
2023-03-13T23:51:22.866Z,11.70
2023-03-13T23:53:55.051Z,11.70
2023-03-13T23:56:25.315Z,11.70
2023-03-13T23:58:55.235Z,11.70
